Time;durP1;ratioP1;P1;durP2;ratioP2;P2;SDS_P1;SDS_P2;PMS_P1;PMS_P2;Temp;Humidity;BMP_temperature;BMP_pressure;BME280_temperature;BME280_humidity;BME280_pressure;Samples;Min_cycle;Max_cycle;Signal;HPM_P1;HPM_P2
2021/12/10 00:00:54;;;;;;;4.97;1.50;;;0.40;99.90;;;;;;4979681;28;20827;-63
2021/12/10 00:03:23;;;;;;;5.73;1.80;;;0.40;99.90;;;;;;4976325;28;20254;-63
2021/12/10 00:06:00;;;;;;;2.40;1.40;;;0.30;99.90;;;;;;4975653;28;20444;-63
2021/12/10 00:08:28;;;;;;;6.80;1.40;;;0.30;99.90;;;;;;4974321;28;20422;-63
2021/12/10 00:10:57;;;;;;;9.20;2.00;;;0.30;99.90;;;;;;4975260;28;20975;-63
2021/12/10 00:13:23;;;;;;;3.60;1.90;;;0.30;99.90;;;;;;4975347;28;20457;-64
2021/12/10 00:15:54;;;;;;;5.63;2.00;;;0.30;99.90;;;;;;4978977;28;20446;-63
2021/12/10 00:18:20;;;;;;;5.83;1.90;;;0.30;99.90;;;;;;4975897;28;20488;-63
2021/12/10 00:20:47;;;;;;;3.73;1.30;;;0.20;99.90;;;;;;4980204;28;20450;-63
2021/12/10 00:23:16;;;;;;;7.13;2.50;;;0.20;99.90;;;;;;4984641;28;20946;-64
2021/12/10 00:25:48;;;;;;;2.40;1.27;;;0.20;99.90;;;;;;4979777;28;20462;-64
2021/12/10 00:28:23;;;;;;;3.90;1.63;;;0.20;99.90;;;;;;4981069;28;20434;-63
2021/12/10 00:31:20;;;;;;;4.80;2.20;;;0.10;99.90;;;;;;4979000;28;20867;-63
2021/12/10 00:33:54;;;;;;;2.63;1.30;;;0.10;99.90;;;;;;4981432;28;20546;-63
2021/12/10 00:36:20;;;;;;;2.47;1.33;;;0.10;99.90;;;;;;4977156;28;20451;-63
2021/12/10 00:38:47;;;;;;;2.87;1.10;;;0.00;99.90;;;;;;4980573;28;20497;-63
2021/12/10 00:41:13;;;;;;;9.03;1.30;;;0.00;99.90;;;;;;4977377;28;20470;-63
2021/12/10 00:43:40;;;;;;;6.20;2.70;;;0.00;99.90;;;;;;4978947;28;20467;-64
2021/12/10 00:46:06;;;;;;;3.10;1.77;;;0.00;99.90;;;;;;4976842;28;20940;-64
2021/12/10 00:48:33;;;;;;;9.30;2.23;;;0.00;99.90;;;;;;4977255;28;20457;-63
2021/12/10 00:51:01;;;;;;;2.83;1.37;;;0.00;99.90;;;;;;4979877;28;20473;-63
2021/12/10 00:53:27;;;;;;;2.20;1.30;;;-0.10;99.90;;;;;;4981164;28;20458;-63
2021/12/10 00:55:53;;;;;;;3.00;1.07;;;-0.10;99.90;;;;;;4976285;28;20470;-63
2021/12/10 00:58:21;;;;;;;14.13;2.13;;;0.00;99.90;;;;;;4973524;28;20451;-63
2021/12/10 01:00:51;;;;;;;4.43;1.80;;;-0.10;99.90;;;;;;4983267;28;20477;-63
2021/12/10 01:03:20;;;;;;;6.30;1.40;;;-0.10;99.90;;;;;;4979634;28;20470;-63
2021/12/10 01:05:50;;;;;;;3.40;1.20;;;-0.10;99.90;;;;;;4978560;28;20630;-63
2021/12/10 01:08:16;;;;;;;2.40;1.00;;;-0.10;99.90;;;;;;4973066;28;20440;-63
2021/12/10 01:10:48;;;;;;;3.43;1.33;;;-0.10;99.90;;;;;;4979056;28;20813;-63
2021/12/10 01:13:18;;;;;;;15.13;1.73;;;-0.20;99.90;;;;;;4976946;28;20454;-63
2021/12/10 01:24:07;;;;;;;2.43;1.53;;;-0.20;99.90;;;;;;4980048;28;20485;-63
2021/12/10 01:29:21;;;;;;;1.67;0.90;;;-0.20;99.90;;;;;;4977994;28;20508;-63
2021/12/10 01:31:49;;;;;;;2.80;1.30;;;-0.30;99.90;;;;;;4983342;28;20534;-63
2021/12/10 01:34:15;;;;;;;3.03;1.30;;;-0.30;99.90;;;;;;4979008;28;20470;-63
2021/12/10 01:36:41;;;;;;;2.23;0.90;;;-0.30;99.90;;;;;;4974110;28;20577;-63
2021/12/10 01:39:11;;;;;;;2.43;1.30;;;-0.30;99.90;;;;;;4979635;28;20498;-63
2021/12/10 01:41:40;;;;;;;4.10;1.07;;;-0.30;99.90;;;;;;4983804;28;20279;-64
2021/12/10 01:44:26;;;;;;;12.97;1.93;;;-0.40;99.90;;;;;;4976546;28;20458;-63
2021/12/10 01:46:51;;;;;;;1.70;0.80;;;-0.40;99.90;;;;;;4981322;28;20433;-63
2021/12/10 01:49:17;;;;;;;5.83;1.20;;;-0.40;99.90;;;;;;4982888;28;20443;-63
2021/12/10 01:51:44;;;;;;;4.30;1.27;;;-0.40;99.90;;;;;;4972830;28;20192;-63
2021/12/10 01:54:21;;;;;;;1.80;1.10;;;-0.50;99.90;;;;;;4979131;28;20243;-63
2021/12/10 01:56:48;;;;;;;2.03;0.70;;;-0.50;99.90;;;;;;4973242;28;20551;-63
2021/12/10 01:59:16;;;;;;;2.90;1.07;;;-0.50;99.90;;;;;;4979602;28;20427;-63
2021/12/10 02:01:46;;;;;;;5.20;1.57;;;-0.50;99.90;;;;;;4970783;28;20451;-63
2021/12/10 02:04:21;;;;;;;2.67;1.60;;;-0.50;99.90;;;;;;4982406;28;20499;-63
2021/12/10 02:06:47;;;;;;;4.63;1.60;;;-0.50;99.90;;;;;;4982445;28;20431;-63
2021/12/10 02:09:13;;;;;;;3.37;1.73;;;-0.50;99.90;;;;;;4976504;28;20420;-63
2021/12/10 02:11:39;;;;;;;8.50;0.83;;;-0.50;99.90;;;;;;4982655;28;20192;-63
2021/12/10 02:14:05;;;;;;;3.40;1.23;;;-0.50;99.90;;;;;;4976378;28;20806;-63
2021/12/10 02:16:31;;;;;;;4.97;1.40;;;-0.60;99.90;;;;;;4973689;28;20735;-64
2021/12/10 02:18:56;;;;;;;3.47;1.23;;;-0.60;99.90;;;;;;4969208;28;20535;-64
2021/12/10 02:21:25;;;;;;;4.33;1.70;;;-0.60;99.90;;;;;;4973784;28;20214;-64
2021/12/10 02:23:56;;;;;;;3.27;1.07;;;-0.60;99.90;;;;;;4985366;28;20215;-64
2021/12/10 02:26:26;;;;;;;8.77;1.63;;;-0.70;99.90;;;;;;4979914;28;20428;-64
2021/12/10 02:28:53;;;;;;;2.77;1.10;;;-0.60;99.90;;;;;;4977857;28;20475;-64
2021/12/10 02:31:18;;;;;;;2.70;1.03;;;-0.70;99.90;;;;;;4970380;28;20432;-64
2021/12/10 02:33:44;;;;;;;6.07;1.60;;;-0.60;99.90;;;;;;4975878;28;20442;-64
2021/12/10 02:36:12;;;;;;;2.37;0.73;;;-0.70;99.90;;;;;;4980234;28;20215;-64
2021/12/10 02:38:50;;;;;;;2.70;0.87;;;-0.70;99.90;;;;;;4975726;28;20199;-64
2021/12/10 02:41:19;;;;;;;1.90;1.07;;;-0.70;99.90;;;;;;4970286;28;20841;-64
2021/12/10 02:43:45;;;;;;;1.63;0.67;;;-0.70;99.90;;;;;;4979253;28;20785;-64
2021/12/10 02:46:12;;;;;;;2.07;1.00;;;-0.70;99.90;;;;;;4975134;28;20436;-64
2021/12/10 02:48:38;;;;;;;7.87;1.27;;;-0.70;99.90;;;;;;4968714;28;20780;-64
2021/12/10 02:51:06;;;;;;;2.23;1.10;;;-0.70;99.90;;;;;;4969392;28;20431;-65
2021/12/10 02:53:36;;;;;;;6.57;0.93;;;-0.70;99.90;;;;;;4976445;28;20188;-64
2021/12/10 02:56:03;;;;;;;5.53;2.17;;;-0.80;99.90;;;;;;4977032;28;20480;-64
2021/12/10 02:58:29;;;;;;;3.57;1.23;;;-0.80;99.90;;;;;;4975488;28;20454;-64
2021/12/10 03:01:08;;;;;;;3.37;0.90;;;-0.90;99.90;;;;;;4980489;28;20426;-64
2021/12/10 03:03:39;;;;;;;1.50;0.80;;;-0.90;99.90;;;;;;4978826;28;20462;-64
2021/12/10 03:06:10;;;;;;;3.50;1.80;;;-0.90;99.90;;;;;;4985589;28;20530;-64
2021/12/10 03:08:37;;;;;;;2.83;0.87;;;-0.90;99.90;;;;;;4975474;28;20420;-64
2021/12/10 03:11:04;;;;;;;2.33;0.90;;;-1.00;99.90;;;;;;4975665;28;21079;-64
2021/12/10 03:13:30;;;;;;;3.77;1.30;;;-1.00;99.90;;;;;;4981595;28;20897;-64
2021/12/10 03:15:56;;;;;;;1.80;0.97;;;-1.00;99.90;;;;;;4987212;28;20438;-64
2021/12/10 03:18:22;;;;;;;2.90;1.00;;;-1.10;99.90;;;;;;4977440;28;20455;-63
2021/12/10 03:20:48;;;;;;;6.97;1.63;;;-1.10;99.90;;;;;;4985095;28;20427;-63
2021/12/10 03:23:14;;;;;;;4.37;1.10;;;-1.20;99.90;;;;;;4973611;28;20482;-63
2021/12/10 03:25:41;;;;;;;3.87;1.23;;;-1.20;99.90;;;;;;4983368;28;20420;-63
2021/12/10 03:28:08;;;;;;;4.10;1.50;;;-1.30;99.90;;;;;;4983922;28;20419;-63
2021/12/10 03:30:39;;;;;;;1.60;0.70;;;-1.20;99.90;;;;;;4979396;28;20478;-63
2021/12/10 03:33:05;;;;;;;3.03;1.17;;;-1.30;99.90;;;;;;4987138;28;20539;-63
2021/12/10 03:35:36;;;;;;;1.80;0.70;;;-1.30;99.90;;;;;;4985432;28;20439;-64
2021/12/10 03:38:04;;;;;;;3.10;1.37;;;-1.30;99.90;;;;;;4981511;28;20442;-64
2021/12/10 03:40:31;;;;;;;7.90;1.37;;;-1.40;99.90;;;;;;4975553;28;20934;-64
2021/12/10 03:42:58;;;;;;;2.60;1.10;;;-1.40;99.90;;;;;;4976100;28;20475;-64
2021/12/10 03:45:31;;;;;;;2.23;0.90;;;-1.40;99.90;;;;;;4972612;28;20429;-64
2021/12/10 03:48:02;;;;;;;4.90;1.43;;;-1.40;99.90;;;;;;4974502;28;20419;-64
2021/12/10 03:50:31;;;;;;;1.60;0.90;;;-1.40;99.90;;;;;;4977448;28;21173;-64
2021/12/10 03:52:58;;;;;;;4.87;1.57;;;-1.40;99.90;;;;;;4978419;28;20415;-64
2021/12/10 03:55:24;;;;;;;2.97;0.90;;;-1.30;99.90;;;;;;4972396;28;20522;-64
2021/12/10 03:57:51;;;;;;;13.80;1.60;;;-1.30;99.90;;;;;;4975379;28;20423;-63
2021/12/10 04:00:20;;;;;;;4.80;1.60;;;-1.30;99.90;;;;;;4978529;28;20948;-63
2021/12/10 04:02:47;;;;;;;1.10;0.40;;;-1.30;99.90;;;;;;4985318;28;20546;-64
2021/12/10 04:05:13;;;;;;;1.20;0.50;;;-1.40;99.90;;;;;;4982542;28;20959;-64
2021/12/10 04:07:39;;;;;;;1.10;0.40;;;-1.40;99.90;;;;;;4986992;28;20422;-64
2021/12/10 04:10:08;;;;;;;1.10;0.40;;;-1.40;99.90;;;;;;4983440;28;20195;-64
2021/12/10 04:12:34;;;;;;;1.10;0.40;;;-1.50;99.90;;;;;;4983534;28;20222;-64
2021/12/10 04:15:00;;;;;;;1.10;0.50;;;-1.50;99.90;;;;;;4980776;28;21159;-64
2021/12/10 04:17:26;;;;;;;5.40;1.97;;;-1.60;99.90;;;;;;4977800;28;20955;-64
2021/12/10 04:19:52;;;;;;;1.10;0.40;;;-1.60;99.90;;;;;;4978501;28;20951;-64
2021/12/10 04:22:21;;;;;;;1.20;0.70;;;-1.60;99.90;;;;;;4987486;28;20439;-64
2021/12/10 04:24:47;;;;;;;2.30;1.10;;;-1.60;99.90;;;;;;4978919;28;20179;-64
2021/12/10 04:27:14;;;;;;;2.97;1.43;;;-1.60;99.90;;;;;;4973571;28;20431;-64
2021/12/10 04:29:40;;;;;;;2.43;1.33;;;-1.60;99.90;;;;;;4974836;28;20517;-64
2021/12/10 04:32:08;;;;;;;2.40;1.20;;;-1.60;99.90;;;;;;4977007;28;20515;-64
2021/12/10 04:34:34;;;;;;;6.30;1.47;;;-1.60;99.90;;;;;;4985310;28;20266;-64
2021/12/10 04:37:01;;;;;;;2.90;1.30;;;-1.60;99.90;;;;;;4990400;28;20782;-64
2021/12/10 04:39:29;;;;;;;9.77;1.50;;;-1.70;99.90;;;;;;4979884;28;20526;-64
2021/12/10 04:41:55;;;;;;;1.10;0.40;;;-1.70;99.90;;;;;;4981922;28;20431;-64
2021/12/10 04:44:20;;;;;;;1.10;0.40;;;-1.70;99.90;;;;;;4986818;28;20548;-64
2021/12/10 04:46:46;;;;;;;4.50;1.33;;;-1.80;99.90;;;;;;4982099;28;20455;-64
2021/12/10 04:49:14;;;;;;;3.27;1.53;;;-1.80;99.90;;;;;;4976959;28;20192;-64
2021/12/10 04:51:50;;;;;;;13.37;1.90;;;-1.90;99.90;;;;;;4978293;28;20544;-64
2021/12/10 04:54:18;;;;;;;2.17;1.40;;;-1.90;99.90;;;;;;4972825;28;20438;-64
2021/12/10 04:56:44;;;;;;;3.80;1.80;;;-1.90;99.90;;;;;;4986468;28;20427;-64
2021/12/10 04:59:14;;;;;;;3.13;1.43;;;-1.90;99.90;;;;;;4984354;28;20431;-64
2021/12/10 05:01:40;;;;;;;3.00;1.57;;;-1.90;99.90;;;;;;4982693;28;20463;-64
2021/12/10 05:04:07;;;;;;;3.30;1.63;;;-1.80;99.90;;;;;;4978951;28;20471;-64
2021/12/10 05:06:34;;;;;;;4.70;2.20;;;-1.80;99.90;;;;;;4982193;28;20438;-64
2021/12/10 05:09:00;;;;;;;4.67;2.90;;;-1.80;99.90;;;;;;4979740;28;20431;-64
2021/12/10 05:11:26;;;;;;;3.73;2.20;;;-1.80;99.90;;;;;;4978426;28;20493;-64
2021/12/10 05:13:52;;;;;;;11.10;1.80;;;-1.80;99.90;;;;;;4982347;28;20422;-64
2021/12/10 05:16:24;;;;;;;3.53;2.00;;;-1.80;99.90;;;;;;4981789;28;20191;-66
2021/12/10 05:18:56;;;;;;;7.73;1.97;;;-1.80;99.90;;;;;;4978007;28;20288;-64
2021/12/10 05:21:23;;;;;;;2.60;1.73;;;-1.70;99.90;;;;;;4984135;28;20431;-64
2021/12/10 05:23:49;;;;;;;5.33;2.27;;;-1.70;99.90;;;;;;4990342;28;20490;-65
2021/12/10 05:26:14;;;;;;;5.10;2.30;;;-1.70;99.90;;;;;;4976621;28;20795;-64
2021/12/10 05:28:40;;;;;;;22.57;2.37;;;-1.70;99.90;;;;;;4986110;28;20673;-64
2021/12/10 05:31:06;;;;;;;6.40;3.07;;;-1.70;99.90;;;;;;4982825;28;20185;-64
2021/12/10 05:33:32;;;;;;;4.50;2.03;;;-1.70;99.90;;;;;;4980084;28;20189;-64
2021/12/10 05:36:00;;;;;;;4.93;2.73;;;-1.70;99.90;;;;;;4977788;28;20431;-64
2021/12/10 05:38:26;;;;;;;5.73;2.27;;;-1.70;99.90;;;;;;4972637;28;20428;-64
2021/12/10 05:40:54;;;;;;;1.20;0.60;;;-1.70;99.90;;;;;;4988397;28;20447;-64
2021/12/10 05:43:21;;;;;;;6.80;3.20;;;-1.80;99.90;;;;;;4977428;28;20226;-64
2021/12/10 05:45:48;;;;;;;5.37;2.60;;;-1.80;99.90;;;;;;4988312;28;20478;-64
2021/12/10 05:48:15;;;;;;;3.83;2.17;;;-1.70;99.90;;;;;;4976651;28;20522;-64
2021/12/10 05:50:41;;;;;;;5.73;3.23;;;-1.80;99.90;;;;;;4976940;28;20430;-64
2021/12/10 05:53:07;;;;;;;6.60;3.20;;;-1.70;99.90;;;;;;4975072;28;20432;-65
2021/12/10 05:55:34;;;;;;;8.07;2.20;;;-1.70;99.90;;;;;;4973832;28;20450;-64
2021/12/10 05:58:00;;;;;;;7.10;3.03;;;-1.70;99.90;;;;;;4976372;28;20196;-65
2021/12/10 06:00:39;;;;;;;12.87;2.70;;;-1.60;99.90;;;;;;4977096;28;20522;-65
2021/12/10 06:03:06;;;;;;;7.30;4.00;;;-1.60;99.90;;;;;;4975171;28;20552;-64
2021/12/10 06:05:34;;;;;;;6.30;2.70;;;-1.60;99.90;;;;;;4976237;28;20771;-64
2021/12/10 06:08:00;;;;;;;5.50;2.73;;;-1.50;99.90;;;;;;4986560;28;20458;-64
2021/12/10 06:10:27;;;;;;;5.37;2.90;;;-1.50;99.90;;;;;;4976643;28;20423;-65
2021/12/10 06:12:53;;;;;;;6.83;3.50;;;-1.50;99.90;;;;;;4982426;28;20458;-66
2021/12/10 06:15:21;;;;;;;9.07;2.83;;;-1.40;99.90;;;;;;4976267;28;20430;-66
2021/12/10 06:17:48;;;;;;;5.73;3.17;;;-1.40;99.90;;;;;;4980378;28;20455;-65
2021/12/10 06:20:17;;;;;;;4.40;2.53;;;-1.50;99.90;;;;;;4977226;28;20424;-65
2021/12/10 06:22:43;;;;;;;6.40;3.23;;;-1.50;99.90;;;;;;4982692;28;20466;-65
2021/12/10 06:25:09;;;;;;;8.30;3.30;;;-1.50;99.90;;;;;;4979180;28;20436;-65
2021/12/10 06:27:36;;;;;;;6.70;2.90;;;-1.60;99.90;;;;;;4984158;28;20187;-66
2021/12/10 06:30:04;;;;;;;5.87;3.20;;;-1.60;99.90;;;;;;4987407;28;20188;-66
2021/12/10 06:32:30;;;;;;;12.90;2.83;;;-1.60;99.90;;;;;;4988029;28;20474;-66
2021/12/10 06:34:56;;;;;;;4.33;2.23;;;-1.60;99.90;;;;;;4987313;28;21006;-66
2021/12/10 06:37:22;;;;;;;7.07;3.43;;;-1.50;99.90;;;;;;4983596;28;20223;-66
2021/12/10 06:39:47;;;;;;;5.23;3.57;;;-1.50;99.90;;;;;;4977164;28;20279;-66
2021/12/10 06:42:13;;;;;;;13.20;3.40;;;-1.50;99.90;;;;;;4984902;28;21021;-66
2021/12/10 06:44:39;;;;;;;6.80;2.90;;;-1.50;99.90;;;;;;4982750;28;20306;-66
2021/12/10 06:47:06;;;;;;;11.83;2.87;;;-1.50;99.90;;;;;;4978901;28;20193;-66
2021/12/10 06:49:33;;;;;;;5.57;2.77;;;-1.50;99.90;;;;;;4978264;28;20888;-66
2021/12/10 06:52:01;;;;;;;13.40;2.90;;;-1.40;99.90;;;;;;4982378;28;20540;-65
2021/12/10 06:54:28;;;;;;;6.67;2.77;;;-1.50;99.90;;;;;;4983962;28;20426;-65
2021/12/10 06:56:56;;;;;;;8.20;2.60;;;-1.50;99.90;;;;;;4981674;28;20418;-65
2021/12/10 06:59:24;;;;;;;8.57;2.87;;;-1.50;99.90;;;;;;4987509;28;20426;-65
2021/12/10 07:01:50;;;;;;;6.10;2.40;;;-1.50;99.90;;;;;;4984407;28;20479;-65
2021/12/10 07:04:16;;;;;;;6.77;3.10;;;-1.50;99.90;;;;;;4981424;28;20627;-65
2021/12/10 07:06:45;;;;;;;8.20;3.60;;;-1.50;99.90;;;;;;4981539;28;20548;-65
2021/12/10 07:09:19;;;;;;;1.20;0.50;;;-1.50;99.90;;;;;;4985218;28;20187;-64
2021/12/10 07:11:46;;;;;;;7.30;4.13;;;-1.50;99.90;;;;;;4984274;28;21038;-64
2021/12/10 07:14:11;;;;;;;16.83;3.73;;;-1.50;99.90;;;;;;4985176;28;20442;-65
2021/12/10 07:16:37;;;;;;;8.93;4.13;;;-1.50;99.90;;;;;;4985985;28;20442;-65
2021/12/10 07:19:05;;;;;;;8.57;3.87;;;-1.50;99.90;;;;;;4986395;28;20238;-65
2021/12/10 07:21:33;;;;;;;4.60;2.87;;;-1.50;99.90;;;;;;4979382;28;20188;-65
2021/12/10 07:24:01;;;;;;;7.07;2.80;;;-1.50;99.90;;;;;;4979013;28;20455;-65
2021/12/10 07:26:28;;;;;;;9.67;3.53;;;-1.50;99.90;;;;;;4979543;28;20439;-65
2021/12/10 07:28:54;;;;;;;9.97;3.27;;;-1.50;99.90;;;;;;4984405;28;20479;-65
2021/12/10 07:31:20;;;;;;;7.90;3.87;;;-1.60;99.90;;;;;;4994454;28;20434;-65
2021/12/10 07:33:46;;;;;;;5.73;3.27;;;-1.50;99.90;;;;;;4994094;28;20477;-65
2021/12/10 07:36:12;;;;;;;23.83;3.50;;;-1.50;99.90;;;;;;4993496;28;20450;-65
2021/12/10 07:38:38;;;;;;;6.90;4.17;;;-1.50;99.90;;;;;;4991233;28;20279;-65
2021/12/10 07:41:06;;;;;;;8.23;3.80;;;-1.50;99.90;;;;;;4993687;28;20605;-65
2021/12/10 07:43:32;;;;;;;9.23;3.73;;;-1.40;99.90;;;;;;4992105;28;20966;-65
2021/12/10 07:45:58;;;;;;;8.40;3.70;;;-1.40;99.90;;;;;;4990031;28;20865;-66
2021/12/10 07:48:26;;;;;;;7.03;3.83;;;-1.30;99.90;;;;;;4988204;28;20488;-65
2021/12/10 07:50:58;;;;;;;10.13;4.67;;;-1.30;99.90;;;;;;4996692;28;20211;-65
2021/12/10 07:53:29;;;;;;;6.17;3.50;;;-1.30;99.90;;;;;;4989797;28;20430;-68
2021/12/10 07:55:56;;;;;;;1.30;0.60;;;-1.20;99.90;;;;;;4988048;28;20456;-67
2021/12/10 07:58:22;;;;;;;4.60;2.60;;;-1.20;99.90;;;;;;4988936;28;20577;-67
2021/12/10 08:00:49;;;;;;;9.40;3.33;;;-1.10;99.90;;;;;;4989687;28;21070;-67
2021/12/10 08:03:16;;;;;;;1.30;0.50;;;-1.00;99.90;;;;;;4986969;28;20471;-68
2021/12/10 08:05:42;;;;;;;5.40;2.17;;;-0.90;99.90;;;;;;4993736;28;20431;-68
2021/12/10 08:08:09;;;;;;;3.97;2.37;;;-0.90;99.90;;;;;;4991381;28;20427;-68
2021/12/10 08:10:38;;;;;;;4.57;2.67;;;-0.90;99.90;;;;;;4991922;28;20471;-67
2021/12/10 08:13:04;;;;;;;6.27;3.50;;;-0.80;99.90;;;;;;4993498;28;20429;-67
2021/12/10 08:15:30;;;;;;;6.10;3.50;;;-0.80;99.90;;;;;;4992189;28;20458;-68
2021/12/10 08:17:56;;;;;;;6.00;2.93;;;-0.80;99.90;;;;;;4994152;28;20446;-69
2021/12/10 08:20:24;;;;;;;6.40;2.97;;;-0.80;99.90;;;;;;4991792;28;20194;-68
2021/12/10 08:22:51;;;;;;;5.77;3.00;;;-0.70;99.90;;;;;;4993792;28;20661;-68
2021/12/10 08:25:18;;;;;;;12.87;4.40;;;-0.60;99.90;;;;;;4993842;28;20911;-68
2021/12/10 08:27:44;;;;;;;17.40;6.93;;;-0.50;99.90;;;;;;4992436;28;20739;-68
2021/12/10 08:30:15;;;;;;;12.90;5.87;;;-0.40;99.90;;;;;;4990622;28;20501;-68
2021/12/10 08:32:41;;;;;;;13.63;5.23;;;-0.30;99.90;;;;;;4988486;28;20419;-67
2021/12/10 08:35:12;;;;;;;12.20;5.30;;;-0.20;99.90;;;;;;4992379;28;20433;-68
2021/12/10 08:37:39;;;;;;;10.77;3.70;;;-0.10;99.90;;;;;;4989954;28;20534;-68
2021/12/10 08:40:07;;;;;;;7.43;3.80;;;0.00;99.90;;;;;;4992552;28;20462;-68
2021/12/10 08:42:32;;;;;;;8.80;3.43;;;0.00;99.90;;;;;;4988576;28;20425;-67
2021/12/10 08:44:58;;;;;;;7.93;3.10;;;0.10;99.90;;;;;;4990841;28;20435;-68
2021/12/10 08:47:24;;;;;;;8.17;3.10;;;0.10;99.90;;;;;;4990304;28;20188;-69
2021/12/10 08:49:50;;;;;;;4.93;2.67;;;0.10;99.90;;;;;;4986775;28;20893;-68
2021/12/10 08:52:16;;;;;;;4.20;2.23;;;0.30;99.90;;;;;;4980625;28;20473;-68
2021/12/10 08:54:42;;;;;;;8.40;3.20;;;0.30;99.90;;;;;;4985325;28;20286;-69
2021/12/10 08:57:09;;;;;;;11.20;2.90;;;0.20;99.90;;;;;;4988909;28;20461;-67
2021/12/10 08:59:36;;;;;;;3.30;1.63;;;0.30;99.90;;;;;;4989812;28;20783;-67
2021/12/10 09:02:04;;;;;;;3.57;2.03;;;0.30;99.90;;;;;;4987326;28;20454;-68
2021/12/10 09:04:32;;;;;;;10.97;2.20;;;0.30;99.90;;;;;;4986348;28;20999;-68
2021/12/10 09:07:03;;;;;;;3.80;1.93;;;0.30;99.90;;;;;;4987961;28;20419;-68
2021/12/10 09:09:30;;;;;;;3.80;1.60;;;0.30;99.90;;;;;;4983251;28;20441;-67
2021/12/10 09:11:58;;;;;;;4.40;2.07;;;0.40;99.90;;;;;;4989402;28;20458;-68
2021/12/10 09:14:29;;;;;;;4.73;2.20;;;0.40;99.90;;;;;;4988044;28;20488;-69
2021/12/10 09:16:58;;;;;;;3.30;1.57;;;0.40;99.90;;;;;;4987577;28;20915;-69
2021/12/10 09:19:24;;;;;;;6.87;2.30;;;0.40;99.90;;;;;;4980089;28;20538;-68
2021/12/10 09:21:51;;;;;;;5.27;2.37;;;0.40;99.90;;;;;;4989989;28;20437;-70
2021/12/10 09:24:20;;;;;;;5.50;2.00;;;0.50;99.90;;;;;;4988029;28;20510;-69
2021/12/10 09:26:53;;;;;;;3.90;1.70;;;0.50;99.90;;;;;;4976828;28;20896;-69
2021/12/10 09:29:20;;;;;;;3.90;2.10;;;0.50;99.90;;;;;;4980699;28;20446;-69
2021/12/10 09:31:47;;;;;;;3.93;1.60;;;0.60;99.90;;;;;;4980364;28;20474;-69
2021/12/10 09:34:14;;;;;;;2.77;1.90;;;0.70;99.90;;;;;;4983756;28;20447;-69
2021/12/10 09:36:41;;;;;;;3.90;1.70;;;0.70;99.90;;;;;;4984341;28;20943;-69
2021/12/10 09:39:10;;;;;;;7.30;2.20;;;0.80;99.90;;;;;;4987197;28;20439;-69
2021/12/10 09:41:36;;;;;;;2.50;1.43;;;0.90;99.90;;;;;;4989161;28;21037;-69
2021/12/10 09:44:03;;;;;;;3.33;1.50;;;0.90;99.90;;;;;;4984572;28;20500;-69
2021/12/10 09:46:29;;;;;;;2.93;1.60;;;1.00;99.90;;;;;;4984809;28;20427;-68
2021/12/10 09:48:55;;;;;;;6.00;1.90;;;1.00;99.90;;;;;;4985656;28;20811;-68
2021/12/10 09:51:24;;;;;;;1.60;0.80;;;1.00;99.90;;;;;;4986538;28;21023;-68
2021/12/10 09:53:54;;;;;;;5.00;1.53;;;1.00;99.90;;;;;;4983664;28;20192;-68
2021/12/10 09:56:22;;;;;;;1.80;0.90;;;0.90;99.90;;;;;;4984716;28;20433;-68
2021/12/10 09:58:49;;;;;;;2.87;1.23;;;1.00;99.90;;;;;;4983789;28;20442;-67
2021/12/10 10:01:20;;;;;;;2.80;1.00;;;1.00;99.90;;;;;;4982067;28;20443;-68
2021/12/10 10:03:49;;;;;;;2.03;0.90;;;1.10;99.90;;;;;;4982762;28;20475;-68
2021/12/10 10:06:16;;;;;;;1.20;0.60;;;1.20;99.40;;;;;;4979484;28;20489;-68
2021/12/10 10:08:42;;;;;;;2.17;1.10;;;1.10;99.80;;;;;;4986063;28;20795;-67
2021/12/10 10:11:18;;;;;;;3.10;1.63;;;1.10;99.80;;;;;;4976982;28;20545;-68
2021/12/10 10:13:47;;;;;;;1.30;0.50;;;1.10;99.40;;;;;;4983912;28;20426;-68
2021/12/10 10:16:13;;;;;;;1.30;0.80;;;1.20;98.80;;;;;;4986192;28;20442;-68
2021/12/10 10:18:43;;;;;;;1.53;0.80;;;1.20;98.90;;;;;;4979922;28;20458;-66
2021/12/10 10:21:23;;;;;;;3.47;1.50;;;1.20;98.60;;;;;;4979819;28;20430;-66
2021/12/10 10:23:49;;;;;;;2.77;0.93;;;1.20;98.60;;;;;;4981827;28;20471;-67
2021/12/10 10:26:20;;;;;;;1.67;0.80;;;1.30;98.30;;;;;;4981274;28;20816;-67
2021/12/10 10:28:46;;;;;;;1.87;0.93;;;1.30;98.00;;;;;;4985712;28;20857;-67
2021/12/10 10:31:20;;;;;;;2.00;0.90;;;1.40;97.70;;;;;;4984451;28;20439;-67
2021/12/10 10:33:50;;;;;;;1.50;0.70;;;1.50;96.80;;;;;;4980846;28;20201;-67
2021/12/10 10:36:20;;;;;;;1.80;1.03;;;1.50;96.90;;;;;;4983872;28;20427;-66
2021/12/10 10:38:53;;;;;;;1.30;0.60;;;1.50;96.90;;;;;;4987537;28;20427;-68
2021/12/10 10:41:22;;;;;;;7.27;0.60;;;1.60;95.70;;;;;;4984409;28;20843;-67
2021/12/10 10:43:48;;;;;;;1.57;0.80;;;1.50;95.60;;;;;;4978401;28;20470;-68
2021/12/10 10:46:14;;;;;;;2.80;0.90;;;1.60;96.00;;;;;;4976088;28;20554;-67
2021/12/10 10:48:43;;;;;;;2.17;0.90;;;1.60;96.10;;;;;;4985765;28;20266;-67
2021/12/10 10:51:17;;;;;;;3.37;0.87;;;1.60;95.90;;;;;;4978606;28;20411;-67
2021/12/10 10:53:49;;;;;;;1.40;0.60;;;1.60;95.50;;;;;;4981491;28;20576;-67
2021/12/10 10:56:18;;;;;;;1.60;0.90;;;1.70;95.50;;;;;;4984948;28;20427;-68
2021/12/10 10:58:55;;;;;;;3.43;0.83;;;1.70;95.20;;;;;;4984492;28;20967;-68
2021/12/10 11:01:28;;;;;;;1.87;0.70;;;1.70;94.90;;;;;;4982437;28;20520;-69
2021/12/10 11:04:18;;;;;;;2.07;0.80;;;1.70;95.00;;;;;;4983748;28;20467;-68
2021/12/10 11:06:51;;;;;;;1.40;0.70;;;1.80;94.90;;;;;;4983974;28;20428;-67
2021/12/10 11:09:27;;;;;;;4.30;1.47;;;1.70;94.80;;;;;;4988767;28;20419;-69
2021/12/10 11:11:55;;;;;;;2.90;0.90;;;1.70;94.20;;;;;;4985617;28;20441;-68
2021/12/10 11:14:29;;;;;;;1.30;0.70;;;1.70;94.20;;;;;;4984764;28;20473;-67
2021/12/10 11:17:14;;;;;;;2.13;1.00;;;1.70;94.30;;;;;;4984193;28;20447;-67
2021/12/10 11:19:43;;;;;;;1.43;0.63;;;1.70;94.70;;;;;;4985319;28;20450;-67
2021/12/10 11:22:13;;;;;;;4.53;0.70;;;1.60;95.90;;;;;;4983597;28;20871;-67
2021/12/10 11:24:54;;;;;;;1.43;0.67;;;1.50;96.30;;;;;;4985459;28;20796;-68
2021/12/10 11:27:35;;;;;;;2.17;0.90;;;1.50;97.30;;;;;;4976448;28;20951;-68
2021/12/10 11:30:19;;;;;;;3.00;1.00;;;1.30;97.90;;;;;;4976833;28;20447;-68
2021/12/10 11:32:54;;;;;;;2.40;1.53;;;1.20;98.50;;;;;;4978064;28;20461;-66
2021/12/10 11:35:23;;;;;;;7.20;0.97;;;1.10;98.80;;;;;;4971871;28;20427;-66
2021/12/10 11:37:58;;;;;;;2.20;1.10;;;1.00;99.10;;;;;;4981518;28;20415;-67
2021/12/10 11:40:40;;;;;;;2.17;1.00;;;0.90;99.50;;;;;;4978692;28;20445;-67
2021/12/10 11:43:21;;;;;;;9.13;1.50;;;1.00;99.80;;;;;;4980571;28;20921;-68
2021/12/10 11:49:02;;;;;;;1.90;1.10;;;0.80;99.90;;;;;;4973336;28;20523;-68
2021/12/10 11:51:34;;;;;;;2.33;1.10;;;0.80;99.90;;;;;;4981900;28;21213;-68
2021/12/10 11:54:20;;;;;;;6.87;1.80;;;0.80;99.90;;;;;;4986681;28;20545;-68
2021/12/10 11:56:51;;;;;;;8.60;1.70;;;0.70;99.90;;;;;;4983311;28;20519;-68
2021/12/10 11:59:20;;;;;;;2.00;1.10;;;0.70;99.90;;;;;;4974873;28;20434;-68
2021/12/10 12:01:58;;;;;;;3.30;1.67;;;0.70;99.90;;;;;;4981379;28;20508;-68
2021/12/10 12:04:42;;;;;;;4.30;1.60;;;0.70;99.90;;;;;;4982327;28;20463;-68
2021/12/10 12:07:26;;;;;;;3.70;2.00;;;0.80;99.90;;;;;;4977333;28;20429;-68
2021/12/10 12:10:04;;;;;;;5.37;1.30;;;0.80;99.90;;;;;;4979405;28;20889;-68
2021/12/10 12:12:40;;;;;;;2.13;1.10;;;0.80;99.90;;;;;;4980027;28;20784;-68
2021/12/10 12:15:19;;;;;;;4.00;1.60;;;0.80;99.90;;;;;;4984317;28;20430;-67
2021/12/10 12:17:52;;;;;;;2.53;1.20;;;0.90;99.90;;;;;;4989797;28;20441;-67
2021/12/10 12:20:33;;;;;;;2.40;0.90;;;0.80;99.90;;;;;;4986244;28;20435;-68
2021/12/10 12:26:03;;;;;;;2.33;1.27;;;0.90;99.90;;;;;;4990088;28;20477;-68
2021/12/10 12:28:29;;;;;;;5.77;2.23;;;1.00;99.90;;;;;;4984055;28;20419;-68
2021/12/10 12:31:11;;;;;;;2.20;1.10;;;1.10;99.90;;;;;;4985854;28;20949;-67
2021/12/10 12:33:57;;;;;;;4.23;1.63;;;1.10;99.90;;;;;;4988465;28;20931;-68
2021/12/10 12:36:52;;;;;;;6.27;1.80;;;1.10;99.90;;;;;;4983970;28;20478;-68
2021/12/10 12:39:38;;;;;;;2.93;1.60;;;1.10;99.90;;;;;;4983282;28;20551;-68
2021/12/10 12:42:17;;;;;;;5.27;2.13;;;1.10;99.90;;;;;;4983289;28;20435;-68
2021/12/10 12:44:43;;;;;;;13.63;1.90;;;1.10;99.90;;;;;;4987255;28;20478;-68
2021/12/10 12:47:13;;;;;;;5.40;2.23;;;1.10;99.90;;;;;;4983196;28;20522;-68
2021/12/10 12:49:48;;;;;;;2.20;1.30;;;1.10;99.90;;;;;;4990092;28;20458;-67
2021/12/10 12:52:19;;;;;;;4.50;0.97;;;1.10;99.90;;;;;;4981265;28;20930;-68
2021/12/10 12:55:00;;;;;;;4.10;1.90;;;1.10;99.90;;;;;;4983212;28;20518;-67
2021/12/10 12:58:11;;;;;;;3.80;1.90;;;1.10;99.90;;;;;;4988993;28;20536;-67
2021/12/10 13:01:01;;;;;;;5.97;1.77;;;1.00;99.90;;;;;;4969469;28;20446;-68
2021/12/10 13:03:39;;;;;;;4.53;1.87;;;1.10;99.90;;;;;;4990573;28;20499;-68
2021/12/10 13:06:10;;;;;;;9.83;2.20;;;1.00;99.90;;;;;;4989656;28;21082;-68
2021/12/10 13:08:38;;;;;;;3.70;1.97;;;1.00;99.90;;;;;;4991058;28;20450;-68
2021/12/10 13:11:06;;;;;;;2.90;1.50;;;1.10;99.90;;;;;;4989520;28;20435;-68
2021/12/10 13:13:54;;;;;;;4.67;1.63;;;1.00;99.90;;;;;;4991136;28;20438;-68
2021/12/10 13:16:32;;;;;;;6.90;1.60;;;1.10;99.90;;;;;;4988250;28;20430;-68
2021/12/10 13:18:58;;;;;;;3.67;1.60;;;1.00;99.90;;;;;;4991433;28;20446;-68